createdAt,value
2019-04-27T00:02:18.094Z,4.03
2019-04-27T00:04:55.865Z,5.77
2019-04-27T00:07:29.108Z,6.03
2019-04-27T00:10:00.818Z,5.17
2019-04-27T00:12:29.810Z,6.12
2019-04-27T00:14:58.430Z,4.20
2019-04-27T00:17:48.645Z,6.37
2019-04-27T00:20:25.315Z,5.63
2019-04-27T00:22:58.271Z,5.70
2019-04-27T00:25:28.374Z,3.80
2019-04-27T00:27:58.441Z,5.23
2019-04-27T00:30:26.998Z,2.70
2019-04-27T00:32:55.646Z,3.60
2019-04-27T00:35:25.772Z,4.37
2019-04-27T00:38:04.426Z,3.93
2019-04-27T00:40:34.674Z,5.13
2019-04-27T00:43:03.136Z,6.90
2019-04-27T00:45:33.985Z,3.20
2019-04-27T00:48:03.545Z,2.60
2019-04-27T00:50:33.883Z,7.23
2019-04-27T00:53:03.485Z,8.50
2019-04-27T00:55:35.008Z,3.20
2019-04-27T00:58:05.188Z,5.33
2019-04-27T01:00:51.613Z,3.00
2019-04-27T01:03:26.226Z,4.20
2019-04-27T01:05:57.394Z,6.47
2019-04-27T01:08:25.934Z,3.13
2019-04-27T01:10:56.364Z,5.17
2019-04-27T01:13:24.739Z,5.83
2019-04-27T01:15:54.682Z,5.60
2019-04-27T01:18:23.363Z,4.47
2019-04-27T01:20:51.828Z,5.43
2019-04-27T01:23:20.362Z,5.00
2019-04-27T01:26:02.325Z,3.07
2019-04-27T01:28:35.421Z,3.13
2019-04-27T01:31:11.698Z,4.07
2019-04-27T01:33:41.213Z,3.53
2019-04-27T01:36:10.745Z,4.00
2019-04-27T01:38:41.022Z,4.57
2019-04-27T01:41:11.713Z,6.60
2019-04-27T01:43:40.189Z,5.15
2019-04-27T01:46:09.152Z,4.03
2019-04-27T01:48:38.695Z,3.97
2019-04-27T01:51:09.110Z,4.63
2019-04-27T01:53:39.003Z,4.33
2019-04-27T01:56:09.209Z,5.60
2019-04-27T01:58:46.620Z,4.00
2019-04-27T02:01:18.955Z,6.53
2019-04-27T02:03:54.864Z,5.60
2019-04-27T02:06:24.014Z,8.07
2019-04-27T02:08:57.090Z,6.73
2019-04-27T02:11:25.620Z,5.93
2019-04-27T02:13:54.148Z,7.35
2019-04-27T02:16:22.690Z,5.30
2019-04-27T02:18:52.916Z,6.17
2019-04-27T02:21:21.374Z,6.37
2019-04-27T02:23:52.521Z,7.83
2019-04-27T02:26:21.585Z,5.03
2019-04-27T02:29:03.760Z,8.43
2019-04-27T02:31:45.755Z,4.73
2019-04-27T02:34:19.960Z,6.17
2019-04-27T02:36:50.654Z,4.83
2019-04-27T02:39:19.557Z,5.67
2019-04-27T02:41:51.918Z,4.23
2019-04-27T02:44:36.261Z,6.57
2019-04-27T02:47:04.967Z,5.80
2019-04-27T02:49:33.448Z,5.93
2019-04-27T02:52:03.710Z,7.33
2019-04-27T02:54:32.251Z,6.53
2019-04-27T02:57:00.777Z,6.07
2019-04-27T02:59:30.476Z,7.65
2019-04-27T03:02:05.366Z,6.53
2019-04-27T03:04:35.201Z,6.80
2019-04-27T03:07:03.837Z,6.80
2019-04-27T03:09:32.358Z,5.67
2019-04-27T03:12:02.233Z,8.53
2019-04-27T03:14:50.598Z,5.70
2019-04-27T03:17:22.716Z,7.07
2019-04-27T03:19:53.430Z,5.67
2019-04-27T03:22:29.247Z,5.70
2019-04-27T03:25:14.730Z,5.30
2019-04-27T03:27:50.272Z,4.95
2019-04-27T03:30:23.064Z,9.85
2019-04-27T03:32:54.865Z,6.40
2019-04-27T03:35:22.853Z,7.60
2019-04-27T03:37:51.196Z,6.30
2019-04-27T03:40:20.503Z,6.10
2019-04-27T03:42:50.872Z,8.80
2019-04-27T03:45:20.142Z,12.18
2019-04-27T03:47:51.224Z,7.20
2019-04-27T03:50:23.870Z,5.73
2019-04-27T03:53:10.340Z,6.83
2019-04-27T03:55:50.210Z,6.50
2019-04-27T03:58:21.618Z,10.80
2019-04-27T04:00:52.141Z,6.30
2019-04-27T04:03:24.129Z,9.40
2019-04-27T04:05:52.651Z,7.13
2019-04-27T04:08:21.846Z,8.07
2019-04-27T04:10:59.684Z,6.73
2019-04-27T04:13:35.787Z,7.70
2019-04-27T04:16:10.874Z,6.15
2019-04-27T04:19:00.860Z,7.37
2019-04-27T04:21:29.985Z,7.22
2019-04-27T04:24:00.885Z,6.25
2019-04-27T04:26:29.474Z,5.70
2019-04-27T04:28:59.903Z,6.90
2019-04-27T04:31:32.124Z,8.80
2019-04-27T04:33:59.705Z,8.47
2019-04-27T04:36:30.306Z,11.70
2019-04-27T04:39:00.568Z,7.83
2019-04-27T04:41:33.417Z,5.85
2019-04-27T04:44:06.548Z,7.47
2019-04-27T04:46:36.721Z,7.17
2019-04-27T04:49:05.242Z,8.10
2019-04-27T04:51:33.880Z,7.83
2019-04-27T04:54:03.411Z,10.20
2019-04-27T04:56:31.873Z,6.03
2019-04-27T04:59:03.440Z,6.27
2019-04-27T05:01:32.332Z,7.87
2019-04-27T05:04:00.904Z,9.53
2019-04-27T05:06:29.398Z,8.60
2019-04-27T05:08:59.476Z,10.00
2019-04-27T05:11:29.800Z,9.50
2019-04-27T05:14:01.274Z,7.45
2019-04-27T05:16:32.780Z,7.20
2019-04-27T05:19:01.156Z,8.30
2019-04-27T05:21:33.874Z,8.70
2019-04-27T05:24:04.513Z,9.87
2019-04-27T05:26:32.979Z,11.43
2019-04-27T05:29:02.478Z,7.13
2019-04-27T05:31:31.018Z,7.80
2019-04-27T05:33:59.669Z,7.50
2019-04-27T05:36:29.599Z,6.83
2019-04-27T05:38:59.744Z,5.90
2019-04-27T05:41:31.157Z,9.45
2019-04-27T05:44:03.145Z,8.05
2019-04-27T05:46:40.852Z,6.37
2019-04-27T05:49:18.838Z,7.50
2019-04-27T05:51:50.502Z,8.77
2019-04-27T05:54:19.930Z,7.03
2019-04-27T05:56:49.623Z,8.27
2019-04-27T05:59:19.874Z,9.47
2019-04-27T06:01:49.588Z,10.33
2019-04-27T06:04:19.325Z,7.27
2019-04-27T06:06:49.732Z,9.00
2019-04-27T06:09:19.362Z,8.00
2019-04-27T06:11:50.274Z,9.60
2019-04-27T06:14:19.233Z,8.13
2019-04-27T06:16:51.007Z,11.90
2019-04-27T06:19:20.568Z,7.90
2019-04-27T06:21:50.588Z,8.37
2019-04-27T06:24:20.600Z,9.80
2019-04-27T06:26:49.847Z,9.80
2019-04-27T06:29:19.682Z,11.83
2019-04-27T06:31:49.639Z,8.73
2019-04-27T06:34:19.396Z,13.10
2019-04-27T06:36:50.605Z,12.33
2019-04-27T06:39:20.533Z,14.47
2019-04-27T06:41:50.780Z,14.33
2019-04-27T06:44:19.699Z,12.13
2019-04-27T06:46:51.157Z,14.10
2019-04-27T06:49:19.763Z,14.73
2019-04-27T06:51:50.987Z,13.73
2019-04-27T06:54:21.553Z,18.80
2019-04-27T06:56:49.737Z,16.05
2019-04-27T06:59:23.145Z,18.90
2019-04-27T07:01:51.679Z,16.03
2019-04-27T07:04:20.417Z,21.43
2019-04-27T07:06:53.993Z,18.17
2019-04-27T07:09:20.221Z,17.52
2019-04-27T07:11:49.354Z,16.40
2019-04-27T07:14:23.793Z,17.90
2019-04-27T07:16:52.275Z,16.03
2019-04-27T07:19:20.785Z,18.10
2019-04-27T07:21:54.509Z,17.60
2019-04-27T07:24:26.763Z,16.60
2019-04-27T07:26:55.257Z,18.98
2019-04-27T07:29:24.751Z,18.07
2019-04-27T07:31:53.221Z,20.27
2019-04-27T07:34:25.521Z,16.37
2019-04-27T07:36:54.025Z,25.47
2019-04-27T07:39:23.686Z,22.00
2019-04-27T07:41:52.784Z,21.33
2019-04-27T07:44:24.353Z,20.12
2019-04-27T07:47:15.482Z,19.47
2019-04-27T07:49:45.816Z,19.90
2019-04-27T07:52:14.413Z,20.27
2019-04-27T07:54:44.521Z,19.17
2019-04-27T07:57:13.205Z,20.72
2019-04-27T07:59:44.103Z,21.67
2019-04-27T08:02:12.739Z,18.10
2019-04-27T08:04:44.067Z,18.47
2019-04-27T08:07:12.623Z,12.60
2019-04-27T08:09:42.112Z,16.05
2019-04-27T08:12:10.985Z,15.67
2019-04-27T08:14:39.743Z,15.97
2019-04-27T08:17:09.750Z,17.40
2019-04-27T08:19:42.230Z,12.83
2019-04-27T08:22:12.895Z,17.10
2019-04-27T08:24:44.224Z,11.93
2019-04-27T08:27:17.312Z,17.47
2019-04-27T08:29:53.159Z,19.97
2019-04-27T08:32:39.422Z,17.80
2019-04-27T08:35:11.060Z,14.50
2019-04-27T08:37:51.114Z,15.87
2019-04-27T08:40:21.558Z,12.23
2019-04-27T08:42:52.314Z,13.43
2019-04-27T08:45:20.778Z,13.60
2019-04-27T08:47:49.971Z,16.73
2019-04-27T08:50:19.206Z,16.03
2019-04-27T08:52:49.902Z,16.30
2019-04-27T08:55:20.383Z,12.77
2019-04-27T08:57:50.576Z,14.93
2019-04-27T09:00:19.599Z,19.52
2019-04-27T09:02:50.371Z,14.43
2019-04-27T09:05:28.908Z,18.90
2019-04-27T09:08:08.721Z,18.70
2019-04-27T09:10:44.774Z,12.05
2019-04-27T09:13:19.353Z,18.30
2019-04-27T09:15:49.555Z,11.90
2019-04-27T09:18:19.701Z,15.40
2019-04-27T09:20:53.745Z,15.00
2019-04-27T09:23:23.277Z,14.13
2019-04-27T09:25:56.426Z,14.17
2019-04-27T09:28:27.268Z,13.03
2019-04-27T09:30:55.815Z,10.93
2019-04-27T09:33:24.516Z,21.73
2019-04-27T09:35:56.722Z,18.40
2019-04-27T09:38:26.882Z,16.27
2019-04-27T09:40:58.087Z,19.37
2019-04-27T09:43:26.881Z,19.00
2019-04-27T09:45:55.776Z,14.93
2019-04-27T09:48:27.092Z,16.23
2019-04-27T09:50:56.069Z,20.08
2019-04-27T09:53:27.334Z,16.85
2019-04-27T09:55:57.538Z,19.53
2019-04-27T09:58:27.126Z,17.77
2019-04-27T10:00:56.815Z,13.43
2019-04-27T10:03:27.110Z,19.10
2019-04-27T10:05:57.086Z,17.03
2019-04-27T10:08:26.191Z,16.53
2019-04-27T10:10:56.854Z,28.50
2019-04-27T10:13:27.604Z,20.50
2019-04-27T10:15:56.501Z,26.50
2019-04-27T10:18:26.569Z,19.60
2019-04-27T10:20:59.910Z,22.43
2019-04-27T10:23:28.287Z,15.13
2019-04-27T10:25:56.807Z,19.67
2019-04-27T10:28:25.357Z,17.35
2019-04-27T10:30:55.636Z,13.53
2019-04-27T10:33:25.758Z,10.43
2019-04-27T10:35:56.293Z,7.20
2019-04-27T10:38:25.869Z,11.07
2019-04-27T10:40:54.541Z,8.37
2019-04-27T10:43:25.783Z,8.47
2019-04-27T10:45:57.535Z,10.50
2019-04-27T10:48:27.703Z,11.67
2019-04-27T10:50:56.210Z,9.57
2019-04-27T10:53:26.735Z,9.10
2019-04-27T10:55:56.617Z,9.37
2019-04-27T10:58:27.428Z,8.90
2019-04-27T11:00:58.486Z,10.40
2019-04-27T11:03:46.212Z,14.07
2019-04-27T11:06:33.505Z,9.53
2019-04-27T11:09:03.074Z,8.57
2019-04-27T11:11:36.218Z,11.70
2019-04-27T11:14:06.738Z,11.35
2019-04-27T11:16:35.668Z,10.70
2019-04-27T11:19:07.009Z,6.53
2019-04-27T11:21:37.935Z,9.27
2019-04-27T11:24:07.669Z,9.57
2019-04-27T11:26:37.489Z,12.83
2019-04-27T11:29:06.025Z,6.47
2019-04-27T11:31:36.395Z,10.97
2019-04-27T11:34:08.469Z,14.63
2019-04-27T11:36:45.588Z,13.20
2019-04-27T11:39:16.214Z,11.33
2019-04-27T11:41:46.325Z,10.78
2019-04-27T11:44:15.290Z,8.57
2019-04-27T11:46:45.509Z,6.90
2019-04-27T11:49:19.259Z,10.03
2019-04-27T11:51:50.364Z,9.77
2019-04-27T11:54:22.111Z,11.07
2019-04-27T11:56:50.594Z,14.23
2019-04-27T11:59:19.149Z,12.20
2019-04-27T12:01:47.631Z,7.80
2019-04-27T12:04:17.133Z,17.17
2019-04-27T12:06:46.228Z,8.10
2019-04-27T12:09:14.848Z,12.60
2019-04-27T12:11:43.383Z,10.90
2019-04-27T12:14:12.084Z,13.17
2019-04-27T12:16:40.559Z,9.33
2019-04-27T12:19:09.048Z,10.90
2019-04-27T12:21:37.623Z,12.58
2019-04-27T12:24:06.240Z,10.97
2019-04-27T12:26:36.429Z,12.93
2019-04-27T12:29:09.048Z,11.40
2019-04-27T12:31:39.153Z,11.03
2019-04-27T12:34:07.602Z,11.63
2019-04-27T12:36:36.107Z,9.17
2019-04-27T12:39:10.132Z,14.97
2019-04-27T12:41:38.782Z,10.03
2019-04-27T12:44:08.389Z,11.60
2019-04-27T12:46:37.158Z,13.17
2019-04-27T12:49:05.993Z,10.37
2019-04-27T12:51:37.423Z,7.43
2019-04-27T12:54:07.816Z,8.63
2019-04-27T12:56:49.741Z,6.57
2019-04-27T12:59:40.038Z,12.05
2019-04-27T13:02:08.793Z,11.50
2019-04-27T13:04:41.133Z,9.17
2019-04-27T13:07:09.818Z,10.53
2019-04-27T13:09:38.392Z,7.93
2019-04-27T13:12:07.085Z,5.67
2019-04-27T13:14:36.762Z,7.33
2019-04-27T13:17:06.267Z,10.20
2019-04-27T13:19:36.637Z,7.57
2019-04-27T13:22:07.518Z,8.50
2019-04-27T13:24:36.228Z,8.77
2019-04-27T13:27:06.441Z,7.23
2019-04-27T13:29:35.695Z,7.62
2019-04-27T13:32:08.450Z,11.00
2019-04-27T13:34:38.313Z,10.83
2019-04-27T13:37:08.594Z,17.83
2019-04-27T13:39:37.106Z,16.25
2019-04-27T13:42:06.629Z,13.13
2019-04-27T13:44:36.021Z,16.17
2019-04-27T13:47:09.138Z,9.80
2019-04-27T13:49:56.570Z,18.00
2019-04-27T13:52:26.756Z,15.80
2019-04-27T13:54:56.028Z,12.67
2019-04-27T13:57:27.694Z,11.70
2019-04-27T13:59:56.257Z,12.93
2019-04-27T14:02:28.892Z,16.90
2019-04-27T14:04:57.962Z,10.90
2019-04-27T14:07:27.781Z,12.53
2019-04-27T14:09:56.245Z,14.47
2019-04-27T14:12:30.063Z,16.30
2019-04-27T14:14:59.081Z,11.23
2019-04-27T14:17:30.731Z,9.73
2019-04-27T14:19:59.604Z,9.70
2019-04-27T14:22:31.441Z,9.35
2019-04-27T14:24:58.894Z,6.27
2019-04-27T14:27:28.997Z,10.50
2019-04-27T14:30:00.088Z,7.93
2019-04-27T14:32:28.739Z,10.00
2019-04-27T14:34:59.183Z,11.30
2019-04-27T14:37:28.620Z,15.67
2019-04-27T14:39:59.858Z,16.62
2019-04-27T14:42:29.356Z,11.77
2019-04-27T14:44:58.821Z,13.30
2019-04-27T14:47:27.397Z,11.80
2019-04-27T14:49:55.863Z,8.03
2019-04-27T14:52:24.353Z,11.70
2019-04-27T14:54:52.842Z,11.13
2019-04-27T14:57:21.385Z,11.80
2019-04-27T14:59:49.944Z,12.63
2019-04-27T15:02:18.585Z,10.73
2019-04-27T15:04:49.650Z,11.60
2019-04-27T15:07:18.144Z,12.40
2019-04-27T15:09:53.530Z,16.13
2019-04-27T15:12:30.400Z,10.03
2019-04-27T15:14:57.188Z,19.47
2019-04-27T15:17:26.793Z,14.20
2019-04-27T15:19:59.666Z,18.23
2019-04-27T15:22:30.108Z,17.00
2019-04-27T15:25:09.064Z,19.10
2019-04-27T15:27:37.200Z,12.70
2019-04-27T15:30:08.620Z,14.80
2019-04-27T15:32:55.759Z,10.87
2019-04-27T15:35:44.033Z,13.60
2019-04-27T15:38:33.701Z,13.37
2019-04-27T15:41:09.643Z,9.98
2019-04-27T15:43:39.744Z,14.70
2019-04-27T15:46:09.750Z,15.13
2019-04-27T15:48:38.588Z,12.53
2019-04-27T15:51:14.819Z,14.03
2019-04-27T15:53:39.406Z,19.23
2019-04-27T15:56:08.903Z,16.80
2019-04-27T15:58:38.273Z,11.40
2019-04-27T16:01:11.898Z,17.80
2019-04-27T16:03:40.748Z,17.10
2019-04-27T16:06:11.924Z,16.97
2019-04-27T16:08:46.867Z,18.83
2019-04-27T16:11:19.555Z,16.40
2019-04-27T16:13:48.776Z,19.67
2019-04-27T16:16:19.641Z,18.67
2019-04-27T16:18:49.109Z,17.77
2019-04-27T16:21:17.799Z,23.27
2019-04-27T16:23:48.145Z,16.13
2019-04-27T16:26:18.303Z,15.47
2019-04-27T16:28:52.815Z,17.03
2019-04-27T16:31:18.611Z,15.40
2019-04-27T16:33:49.635Z,16.23
2019-04-27T16:36:19.762Z,12.37
2019-04-27T16:38:51.356Z,15.68
2019-04-27T16:41:19.856Z,14.97
2019-04-27T16:43:49.018Z,24.25
2019-04-27T16:46:21.592Z,20.07
2019-04-27T16:48:50.140Z,15.60
2019-04-27T16:51:20.164Z,13.97
2019-04-27T16:53:48.973Z,16.17
2019-04-27T16:56:20.504Z,15.87
2019-04-27T16:58:56.546Z,15.63
2019-04-27T17:01:28.448Z,12.63
2019-04-27T17:03:56.795Z,16.43
2019-04-27T17:06:29.351Z,17.80
2019-04-27T17:09:05.019Z,15.87
2019-04-27T17:11:29.830Z,22.60
2019-04-27T17:14:09.450Z,17.93
2019-04-27T17:16:53.412Z,15.47
2019-04-27T17:19:26.591Z,17.17
2019-04-27T17:21:55.303Z,17.53
2019-04-27T17:24:41.954Z,17.10
2019-04-27T17:27:05.383Z,14.10
2019-04-27T17:29:40.067Z,19.90
2019-04-27T17:32:11.995Z,18.17
2019-04-27T17:34:42.931Z,11.87
2019-04-27T17:37:11.395Z,18.83
2019-04-27T17:39:41.185Z,20.67
2019-04-27T17:42:11.111Z,15.63
2019-04-27T17:44:43.674Z,17.03
2019-04-27T17:47:12.119Z,15.98
2019-04-27T17:49:42.910Z,13.40
2019-04-27T17:52:13.055Z,15.20
2019-04-27T17:54:47.441Z,14.90
2019-04-27T17:57:15.646Z,14.43
2019-04-27T17:59:44.235Z,10.80
2019-04-27T18:02:14.791Z,17.20
2019-04-27T18:04:43.347Z,14.63
2019-04-27T18:07:15.646Z,15.87
2019-04-27T18:09:44.272Z,16.63
2019-04-27T18:12:15.636Z,17.20
2019-04-27T18:14:45.717Z,16.53
2019-04-27T18:17:15.173Z,17.55
2019-04-27T18:19:45.571Z,16.97
2019-04-27T18:22:15.250Z,17.90
2019-04-27T18:24:49.544Z,19.17
2019-04-27T18:27:37.807Z,16.12
2019-04-27T18:30:10.477Z,15.67
2019-04-27T18:32:40.411Z,18.30
2019-04-27T18:35:09.225Z,15.17
2019-04-27T18:37:38.914Z,15.73
2019-04-27T18:40:09.323Z,17.00
2019-04-27T18:42:38.589Z,12.83
2019-04-27T18:45:08.825Z,20.55
2019-04-27T18:47:40.500Z,14.20
2019-04-27T18:50:17.917Z,15.67
2019-04-27T18:52:58.133Z,16.13
2019-04-27T18:55:28.804Z,22.30
2019-04-27T18:57:58.716Z,14.97
2019-04-27T19:00:29.505Z,16.53
2019-04-27T19:02:58.536Z,19.27
2019-04-27T19:05:37.991Z,22.25
2019-04-27T19:07:57.408Z,16.80
2019-04-27T19:10:28.145Z,20.90
2019-04-27T19:12:58.485Z,17.17
2019-04-27T19:15:28.574Z,17.23
2019-04-27T19:17:58.196Z,17.00
2019-04-27T19:20:28.679Z,16.73
2019-04-27T19:22:59.834Z,17.40
2019-04-27T19:25:32.683Z,16.97
2019-04-27T19:28:03.824Z,16.33
2019-04-27T19:30:36.812Z,19.07
2019-04-27T19:33:05.387Z,20.27
2019-04-27T19:35:33.864Z,15.93
2019-04-27T19:38:03.380Z,15.63
2019-04-27T19:40:31.944Z,20.33
2019-04-27T19:43:03.222Z,18.73
2019-04-27T19:45:32.325Z,20.72
2019-04-27T19:48:01.888Z,24.33
2019-04-27T19:50:31.664Z,21.40
2019-04-27T19:53:01.480Z,16.60
2019-04-27T19:55:29.978Z,19.83
2019-04-27T19:57:59.487Z,20.50
2019-04-27T20:00:50.403Z,15.45
2019-04-27T20:03:20.842Z,18.20
2019-04-27T20:05:50.927Z,22.20
2019-04-27T20:08:21.160Z,21.80
2019-04-27T20:10:50.385Z,19.27
2019-04-27T20:13:21.977Z,18.87
2019-04-27T20:15:51.245Z,18.87
2019-04-27T20:18:22.906Z,18.03
2019-04-27T20:20:51.447Z,17.98
2019-04-27T20:23:22.439Z,26.50
2019-04-27T20:25:51.107Z,20.00
2019-04-27T20:28:23.128Z,21.80
2019-04-27T20:30:51.849Z,21.23
2019-04-27T20:33:21.046Z,23.20
2019-04-27T20:35:51.045Z,19.97
2019-04-27T20:38:21.420Z,19.07
2019-04-27T20:40:52.848Z,24.43
2019-04-27T20:46:02.305Z,24.67
2019-04-27T20:48:31.296Z,22.70
2019-04-27T20:51:01.343Z,20.83
2019-04-27T20:53:31.976Z,24.20
2019-04-27T20:56:00.440Z,16.20
2019-04-27T20:58:28.918Z,21.40
2019-04-27T21:01:01.553Z,19.55
2019-04-27T21:03:46.803Z,18.70
2019-04-27T21:06:16.926Z,21.87
2019-04-27T21:08:46.673Z,20.03
2019-04-27T21:11:16.131Z,20.93
2019-04-27T21:13:45.737Z,21.47
2019-04-27T21:16:14.233Z,21.07
2019-04-27T21:18:42.701Z,16.37
2019-04-27T21:21:11.473Z,16.97
2019-04-27T21:23:41.442Z,23.87
2019-04-27T21:26:10.259Z,20.77
2019-04-27T21:28:43.413Z,21.70
2019-04-27T21:31:12.813Z,18.17
2019-04-27T21:33:41.471Z,14.23
2019-04-27T21:36:12.287Z,20.67
2019-04-27T21:38:42.558Z,21.67
2019-04-27T21:41:12.179Z,27.63
2019-04-27T21:43:42.075Z,17.30
2019-04-27T21:46:11.052Z,24.70
2019-04-27T21:48:41.528Z,25.15
2019-04-27T21:51:11.908Z,18.33
2019-04-27T21:53:59.453Z,20.73
2019-04-27T21:56:31.152Z,22.40
2019-04-27T21:59:00.991Z,18.60
2019-04-27T22:01:31.954Z,20.93
2019-04-27T22:04:02.435Z,17.07
2019-04-27T22:06:32.683Z,20.30
2019-04-27T22:09:01.440Z,19.17
2019-04-27T22:11:31.780Z,14.87
2019-04-27T22:14:01.335Z,19.40
2019-04-27T22:16:31.489Z,17.90
2019-04-27T22:19:01.939Z,21.27
2019-04-27T22:21:31.742Z,19.63
2019-04-27T22:24:07.529Z,21.90
2019-04-27T22:26:35.995Z,24.37
2019-04-27T22:29:04.532Z,24.63
2019-04-27T22:34:26.372Z,19.48
2019-04-27T22:36:54.892Z,22.50
2019-04-27T22:39:24.993Z,24.53
2019-04-27T22:41:55.195Z,16.47
2019-04-27T22:44:26.574Z,21.82
2019-04-27T22:46:56.806Z,20.23
2019-04-27T22:49:25.320Z,19.03
2019-04-27T22:51:53.790Z,24.13
2019-04-27T22:54:25.052Z,17.90
2019-04-27T22:56:55.194Z,22.63
2019-04-27T22:59:25.368Z,17.40
2019-04-27T23:01:55.486Z,16.90
2019-04-27T23:04:32.412Z,20.13
2019-04-27T23:07:00.645Z,21.83
2019-04-27T23:09:29.806Z,16.80
2019-04-27T23:11:58.392Z,18.90
2019-04-27T23:14:28.520Z,21.57
2019-04-27T23:17:11.192Z,18.40
2019-04-27T23:19:42.748Z,23.43
2019-04-27T23:22:18.402Z,24.65
2019-04-27T23:24:46.914Z,19.70
2019-04-27T23:27:15.541Z,19.10
2019-04-27T23:29:44.080Z,23.60
2019-04-27T23:32:14.300Z,18.60
2019-04-27T23:34:42.827Z,16.87
2019-04-27T23:37:12.738Z,22.57
2019-04-27T23:39:41.250Z,21.90
2019-04-27T23:42:13.540Z,25.47
2019-04-27T23:44:43.025Z,21.12
2019-04-27T23:47:11.536Z,27.57
2019-04-27T23:49:40.836Z,24.27
2019-04-27T23:52:11.078Z,22.80
2019-04-27T23:54:42.755Z,19.93
2019-04-27T23:57:11.686Z,17.53
2019-04-27T23:59:42.247Z,34.43
